Time,TemperatureF,DewpointF,PressureIn,WindDirection,WindDirectionDegrees,WindSpeedMPH,WindSpeedGustMPH,Humidity,HourlyPrecipIn,Conditions,Clouds,dailyrainin,SoftwareType,DateUTC
2013-09-06 00:02:00,69.9,68.1,30.05,WNW,292,0.0,0.0,94,0.00,,,0.00,Wunderground v.1.15,2013-09-06 04:02:00,
2013-09-06 00:12:00,69.6,67.8,30.05,WNW,292,0.0,0.0,94,0.00,,,0.00,Wunderground v.1.15,2013-09-06 04:12:00,
2013-09-06 00:22:00,69.3,67.5,30.05,WNW,292,0.0,0.0,94,0.00,,,0.00,Wunderground v.1.15,2013-09-06 04:22:00,
2013-09-06 00:32:00,69.1,67.6,30.05,WNW,292,0.0,0.0,95,0.00,,,0.00,Wunderground v.1.15,2013-09-06 04:32:00,
2013-09-06 00:42:00,68.7,67.2,30.05,WNW,292,0.0,0.0,95,0.00,,,0.00,Wunderground v.1.15,2013-09-06 04:42:00,
2013-09-06 00:52:00,68.7,67.2,30.06,WNW,292,0.0,0.0,95,0.00,,,0.00,Wunderground v.1.15,2013-09-06 04:52:00,
2013-09-06 01:02:00,68.8,66.1,30.06,WNW,292,0.0,0.0,91,0.00,,,0.00,Wunderground v.1.15,2013-09-06 05:02:00,
2013-09-06 01:12:00,68.8,66.1,30.06,WNW,292,0.0,0.0,91,0.00,,,0.00,Wunderground v.1.15,2013-09-06 05:12:00,
2013-09-06 01:22:00,68.2,66.1,30.06,WNW,292,0.0,0.0,93,0.00,,,0.00,Wunderground v.1.15,2013-09-06 05:22:00,
2013-09-06 01:32:00,67.0,64.9,30.06,WNW,292,0.0,0.0,93,0.00,,,0.00,Wunderground v.1.15,2013-09-06 05:32:00,
2013-09-06 01:42:00,66.7,64.6,30.05,WNW,292,0.0,0.0,93,0.00,,,0.00,Wunderground v.1.15,2013-09-06 05:42:00,
2013-09-06 01:52:00,67.9,64.9,30.05,North,11,1.0,1.0,90,0.00,,,0.00,Wunderground v.1.15,2013-09-06 05:52:00,
2013-09-06 02:02:00,67.7,64.7,30.05,North,11,1.0,2.0,90,0.00,,,0.00,Wunderground v.1.15,2013-09-06 06:02:00,
2013-09-06 02:12:00,67.6,62.9,30.05,NNE,17,2.0,3.0,85,0.00,,,0.00,Wunderground v.1.15,2013-09-06 06:12:00,
2013-09-06 02:22:00,68.0,62.6,30.05,NNE,27,3.0,3.0,83,0.00,,,0.00,Wunderground v.1.15,2013-09-06 06:22:00,
2013-09-06 02:32:00,67.9,62.5,30.05,North,10,2.0,2.0,83,0.00,,,0.00,Wunderground v.1.15,2013-09-06 06:32:00,
2013-09-06 02:42:00,67.9,62.5,30.05,North,9,2.0,3.0,83,0.00,,,0.00,Wunderground v.1.15,2013-09-06 06:42:00,
2013-09-06 02:52:00,67.9,62.5,30.05,NNE,26,2.0,2.0,83,0.00,,,0.00,Wunderground v.1.15,2013-09-06 06:52:00,
2013-09-06 03:02:00,67.6,62.6,30.05,ENE,67,1.0,1.0,84,0.00,,,0.00,Wunderground v.1.15,2013-09-06 07:02:00,
2013-09-06 03:12:00,66.3,62.3,30.05,NE,39,0.0,0.0,87,0.00,,,0.00,Wunderground v.1.15,2013-09-06 07:12:00,
2013-09-06 03:32:00,65.7,62.4,30.06,NE,39,0.0,0.0,89,0.00,,,0.00,Wunderground v.1.15,2013-09-06 07:32:00,
2013-09-06 03:42:00,65.6,62.6,30.06,NE,39,0.0,0.0,90,0.00,,,0.00,Wunderground v.1.15,2013-09-06 07:42:00,
2013-09-06 03:52:00,65.5,62.8,30.06,NE,39,0.0,0.0,91,0.00,,,0.00,Wunderground v.1.15,2013-09-06 07:52:00,
2013-09-06 04:02:00,64.6,62.5,30.06,NE,39,0.0,0.0,93,0.00,,,0.00,Wunderground v.1.15,2013-09-06 08:02:00,
2013-09-06 04:22:00,65.7,63.3,30.06,NNE,32,1.0,1.0,92,0.00,,,0.00,Wunderground v.1.15,2013-09-06 08:22:00,
2013-09-06 04:32:00,65.7,63.0,30.07,NNE,32,0.0,0.0,91,0.00,,,0.00,Wunderground v.1.15,2013-09-06 08:32:00,
2013-09-06 04:42:00,65.5,62.8,30.06,North,5,1.0,2.0,91,0.00,,,0.00,Wunderground v.1.15,2013-09-06 08:42:00,
2013-09-06 04:52:00,65.9,63.2,30.06,North,360,2.0,2.0,91,0.00,,,0.00,Wunderground v.1.15,2013-09-06 08:52:00,
2013-09-06 05:02:00,66.1,62.8,30.06,North,9,1.0,2.0,89,0.00,,,0.00,Wunderground v.1.15,2013-09-06 09:02:00,
2013-09-06 05:12:00,66.0,62.7,30.07,NNE,15,0.0,0.0,89,0.00,,,0.00,Wunderground v.1.15,2013-09-06 09:12:00,
2013-09-06 05:22:00,64.6,62.2,30.07,NNE,15,0.0,0.0,92,0.00,,,0.00,Wunderground v.1.15,2013-09-06 09:22:00,
2013-09-06 05:32:00,64.0,61.9,30.07,NNE,15,0.0,0.0,93,0.00,,,0.00,Wunderground v.1.15,2013-09-06 09:32:00,
2013-09-06 05:42:00,64.0,61.9,30.07,NNE,15,0.0,0.0,93,0.00,,,0.00,Wunderground v.1.15,2013-09-06 09:42:00,
2013-09-06 05:52:00,63.8,61.7,30.07,NNE,15,0.0,0.0,93,0.00,,,0.00,Wunderground v.1.15,2013-09-06 09:52:00,
2013-09-06 06:02:00,63.2,61.4,30.07,NNE,15,0.0,0.0,94,0.00,,,0.00,Wunderground v.1.15,2013-09-06 10:02:00,
2013-09-06 06:12:00,63.2,61.4,30.07,NNE,15,0.0,0.0,94,0.00,,,0.00,Wunderground v.1.15,2013-09-06 10:12:00,
2013-09-06 06:22:00,63.0,61.2,30.07,NNE,15,0.0,0.0,94,0.00,,,0.00,Wunderground v.1.15,2013-09-06 10:22:00,
2013-09-06 06:32:00,62.6,61.1,30.08,NNE,15,0.0,0.0,95,0.00,,,0.00,Wunderground v.1.15,2013-09-06 10:32:00,
2013-09-06 06:42:00,62.3,61.1,30.08,NNE,15,0.0,0.0,96,0.00,,,0.00,Wunderground v.1.15,2013-09-06 10:42:00,
2013-09-06 06:52:00,62.7,61.5,30.08,NNE,15,0.0,0.0,96,0.00,,,0.00,Wunderground v.1.15,2013-09-06 10:52:00,
2013-09-06 07:02:00,62.4,61.2,30.08,NNE,15,0.0,0.0,96,0.00,,,0.00,Wunderground v.1.15,2013-09-06 11:02:00,
2013-09-06 07:12:00,62.6,61.7,30.09,NNE,31,0.0,1.0,97,0.00,,,0.00,Wunderground v.1.15,2013-09-06 11:12:00,
2013-09-06 07:22:00,63.6,62.1,30.09,East,84,1.0,1.0,95,0.00,,,0.00,Wunderground v.1.15,2013-09-06 11:22:00,
2013-09-06 07:32:00,64.6,62.2,30.10,North,360,1.0,1.0,92,0.00,,,0.00,Wunderground v.1.15,2013-09-06 11:32:00,
2013-09-06 07:42:00,65.4,62.7,30.10,NNE,13,1.0,1.0,91,0.00,,,0.00,Wunderground v.1.15,2013-09-06 11:42:00,
2013-09-06 07:52:00,65.7,62.7,30.10,NNE,13,1.0,2.0,90,0.00,,,0.00,Wunderground v.1.15,2013-09-06 11:52:00,
2013-09-06 08:12:00,66.9,62.9,30.10,North,9,2.0,3.0,87,0.00,,,0.00,Wunderground v.1.15,2013-09-06 12:12:00,
2013-09-06 08:22:00,67.8,63.5,30.11,NNE,32,2.0,3.0,86,0.00,,,0.00,Wunderground v.1.15,2013-09-06 12:22:00,
2013-09-06 08:32:00,68.7,64.3,30.11,NE,42,1.0,2.0,86,0.00,,,0.00,Wunderground v.1.15,2013-09-06 12:32:00,
2013-09-06 08:42:00,69.6,65.2,30.12,NE,51,2.0,3.0,86,0.00,,,0.00,Wunderground v.1.15,2013-09-06 12:42:00,
2013-09-06 08:52:00,70.3,64.5,30.12,ENE,60,4.0,4.0,82,0.00,,,0.00,Wunderground v.1.15,2013-09-06 12:52:00,
2013-09-06 09:02:00,71.0,63.8,30.12,ENE,69,6.0,6.0,78,0.00,,,0.00,Wunderground v.1.15,2013-09-06 13:02:00,
2013-09-06 09:12:00,71.4,64.5,30.12,ENE,63,7.0,7.0,79,0.00,,,0.00,Wunderground v.1.15,2013-09-06 13:12:00,
2013-09-06 09:22:00,72.1,64.5,30.12,NE,34,6.0,7.0,77,0.00,,,0.00,Wunderground v.1.15,2013-09-06 13:22:00,
2013-09-06 09:32:00,72.5,64.5,30.12,NNE,29,8.0,10.0,76,0.00,,,0.00,Wunderground v.1.15,2013-09-06 13:32:00,
2013-09-06 09:42:00,72.8,64.4,30.12,East,84,9.0,9.0,75,0.00,,,0.00,Wunderground v.1.15,2013-09-06 13:42:00,
2013-09-06 09:52:00,73.5,64.3,30.12,ENE,71,7.0,9.0,73,0.00,,,0.00,Wunderground v.1.15,2013-09-06 13:52:00,
2013-09-06 10:02:00,73.7,64.5,30.13,NE,51,8.0,8.0,73,0.00,,,0.00,Wunderground v.1.15,2013-09-06 14:02:00,
2013-09-06 10:12:00,74.0,64.4,30.13,NE,52,8.0,8.0,72,0.00,,,0.00,Wunderground v.1.15,2013-09-06 14:12:00,
2013-09-06 10:22:00,75.2,66.3,30.13,NE,50,8.0,8.0,74,0.00,,,0.00,Wunderground v.1.15,2013-09-06 14:22:00,
2013-09-06 10:32:00,75.8,64.1,30.13,ENE,65,8.0,13.0,67,0.00,,,0.00,Wunderground v.1.15,2013-09-06 14:32:00,
2013-09-06 10:42:00,75.9,64.6,30.13,East,84,12.0,14.0,68,0.00,,,0.00,Wunderground v.1.15,2013-09-06 14:42:00,
2013-09-06 10:52:00,76.9,66.0,30.13,East,84,10.0,11.0,69,0.00,,,0.00,Wunderground v.1.15,2013-09-06 14:52:00,
2013-09-06 11:02:00,76.7,64.0,30.13,ENE,65,9.0,11.0,65,0.00,,,0.00,Wunderground v.1.15,2013-09-06 15:02:00,
2013-09-06 11:12:00,76.9,65.1,30.13,NE,55,9.0,14.0,67,0.00,,,0.00,Wunderground v.1.15,2013-09-06 15:12:00,
2013-09-06 11:22:00,76.7,64.0,30.13,ENE,69,10.0,10.0,65,0.00,,,0.00,Wunderground v.1.15,2013-09-06 15:22:00,
2013-09-06 11:32:00,77.7,64.5,30.13,NNE,29,9.0,9.0,64,0.00,,,0.00,Wunderground v.1.15,2013-09-06 15:32:00,
2013-09-06 11:42:00,77.9,64.7,30.13,NE,46,9.0,11.0,64,0.00,,,0.00,Wunderground v.1.15,2013-09-06 15:42:00,
2013-09-06 11:52:00,78.0,64.4,30.13,NE,53,9.0,10.0,63,0.00,,,0.00,Wunderground v.1.15,2013-09-06 15:52:00,
2013-09-06 12:02:00,78.6,64.5,30.12,NE,36,9.0,10.0,62,0.00,,,0.00,Wunderground v.1.15,2013-09-06 16:02:00,
2013-09-06 12:12:00,79.6,65.9,30.13,East,79,7.0,8.0,63,0.00,,,0.00,Wunderground v.1.15,2013-09-06 16:12:00,
2013-09-06 12:22:00,79.1,65.4,30.13,NE,36,8.0,8.0,63,0.00,,,0.00,Wunderground v.1.15,2013-09-06 16:22:00,
2013-09-06 12:32:00,79.5,65.8,30.12,ENE,74,8.0,9.0,63,0.00,,,0.00,Wunderground v.1.15,2013-09-06 16:32:00,
2013-09-06 12:42:00,79.7,66.4,30.12,NNE,33,8.0,8.0,64,0.00,,,0.00,Wunderground v.1.15,2013-09-06 16:42:00,
2013-09-06 12:52:00,79.1,65.4,30.11,NNE,17,8.0,8.0,63,0.00,,,0.00,Wunderground v.1.15,2013-09-06 16:52:00,
2013-09-06 13:02:00,80.2,66.5,30.11,East,88,8.0,8.0,63,0.00,,,0.00,Wunderground v.1.15,2013-09-06 17:02:00,
2013-09-06 13:12:00,80.1,64.0,30.11,ENE,74,8.0,8.0,58,0.00,,,0.00,Wunderground v.1.15,2013-09-06 17:12:00,
2013-09-06 13:22:00,80.9,65.7,30.11,East,86,6.0,8.0,60,0.00,,,0.00,Wunderground v.1.15,2013-09-06 17:22:00,
2013-09-06 13:32:00,80.8,66.1,30.10,ENE,57,6.0,8.0,61,0.00,,,0.00,Wunderground v.1.15,2013-09-06 17:32:00,
2013-09-06 13:42:00,80.3,64.2,30.10,NNE,21,8.0,10.0,58,0.00,,,0.00,Wunderground v.1.15,2013-09-06 17:42:00,
2013-09-06 13:52:00,80.6,64.9,30.10,NE,46,8.0,8.0,59,0.00,,,0.00,Wunderground v.1.15,2013-09-06 17:52:00,
2013-09-06 14:02:00,80.7,63.5,30.10,NE,55,8.0,8.0,56,0.00,,,0.00,Wunderground v.1.15,2013-09-06 18:02:00,
2013-09-06 14:12:00,81.1,64.4,30.09,East,84,8.0,11.0,57,0.00,,,0.00,Wunderground v.1.15,2013-09-06 18:12:00,
2013-09-06 14:22:00,81.3,64.6,30.09,East,83,7.0,7.0,57,0.00,,,0.00,Wunderground v.1.15,2013-09-06 18:22:00,
2013-09-06 14:32:00,81.2,63.5,30.09,NE,45,6.0,6.0,55,0.00,,,0.00,Wunderground v.1.15,2013-09-06 18:32:00,
2013-09-06 14:42:00,81.4,64.2,30.09,NE,40,5.0,5.0,56,0.00,,,0.00,Wunderground v.1.15,2013-09-06 18:42:00,
2013-09-06 14:52:00,81.2,64.0,30.08,NE,55,7.0,7.0,56,0.00,,,0.00,Wunderground v.1.15,2013-09-06 18:52:00,
2013-09-06 15:02:00,81.6,64.9,30.08,NNE,32,5.0,7.0,57,0.00,,,0.00,Wunderground v.1.15,2013-09-06 19:02:00,
2013-09-06 15:12:00,81.8,64.6,30.08,East,92,5.0,5.0,56,0.00,,,0.00,Wunderground v.1.15,2013-09-06 19:12:00,
2013-09-06 15:22:00,82.4,66.1,30.07,NE,42,4.0,5.0,58,0.00,,,0.00,Wunderground v.1.15,2013-09-06 19:22:00,
2013-09-06 15:32:00,81.9,64.7,30.07,East,80,6.0,9.0,56,0.00,,,0.00,Wunderground v.1.15,2013-09-06 19:32:00,
2013-09-06 15:42:00,81.8,64.6,30.07,North,10,5.0,5.0,56,0.00,,,0.00,Wunderground v.1.15,2013-09-06 19:42:00,
2013-09-06 15:52:00,82.3,64.0,30.06,ENE,58,3.0,4.0,54,0.00,,,0.00,Wunderground v.1.15,2013-09-06 19:52:00,
2013-09-06 16:02:00,81.6,63.3,30.06,NE,36,5.0,5.0,54,0.00,,,0.00,Wunderground v.1.15,2013-09-06 20:02:00,
2013-09-06 16:12:00,81.7,65.5,30.06,East,96,2.0,5.0,58,0.00,,,0.00,Wunderground v.1.15,2013-09-06 20:12:00,
2013-09-06 16:22:00,82.1,63.3,30.06,NE,36,5.0,5.0,53,0.00,,,0.00,Wunderground v.1.15,2013-09-06 20:22:00,
2013-09-06 16:32:00,81.7,63.4,30.05,SE,137,4.0,4.0,54,0.00,,,0.00,Wunderground v.1.15,2013-09-06 20:32:00,
2013-09-06 16:42:00,81.9,64.1,30.05,East,81,5.0,5.0,55,0.00,,,0.00,Wunderground v.1.15,2013-09-06 20:42:00,
2013-09-06 16:52:00,81.4,63.2,30.05,North,5,4.0,4.0,54,0.00,,,0.00,Wunderground v.1.15,2013-09-06 20:52:00,
2013-09-06 17:02:00,81.6,63.9,30.04,ENE,59,3.0,3.0,55,0.00,,,0.00,Wunderground v.1.15,2013-09-06 21:02:00,
2013-09-06 17:12:00,81.6,65.4,30.04,East,98,5.0,6.0,58,0.00,,,0.00,Wunderground v.1.15,2013-09-06 21:12:00,
2013-09-06 17:22:00,81.3,62.5,30.04,NE,43,5.0,5.0,53,0.00,,,0.00,Wunderground v.1.15,2013-09-06 21:22:00,
2013-09-06 17:33:00,81.3,63.1,30.04,ENE,76,3.0,4.0,54,0.00,,,0.00,Wunderground v.1.15,2013-09-06 21:33:00,
2013-09-06 17:43:00,81.2,64.5,30.03,East,84,1.0,5.0,57,0.00,,,0.00,Wunderground v.1.15,2013-09-06 21:43:00,
2013-09-06 17:53:00,81.0,63.8,30.03,East,98,3.0,3.0,56,0.00,,,0.00,Wunderground v.1.15,2013-09-06 21:53:00,
2013-09-06 18:02:00,80.7,64.5,30.03,East,80,4.0,4.0,58,0.00,,,0.00,Wunderground v.1.15,2013-09-06 22:02:00,
2013-09-06 18:13:00,80.5,63.4,30.03,East,90,2.0,3.0,56,0.00,,,0.00,Wunderground v.1.15,2013-09-06 22:13:00,
2013-09-06 18:23:00,80.1,64.0,30.03,East,91,2.0,2.0,58,0.00,,,0.00,Wunderground v.1.15,2013-09-06 22:23:00,
2013-09-06 18:33:00,79.9,64.8,30.03,ENE,63,1.0,2.0,60,0.00,,,0.00,Wunderground v.1.15,2013-09-06 22:33:00,
2013-09-06 18:42:00,79.4,65.2,30.02,ENE,60,2.0,3.0,62,0.00,,,0.00,Wunderground v.1.15,2013-09-06 22:42:00,
2013-09-06 18:52:00,78.7,65.9,30.02,ENE,67,2.0,2.0,65,0.00,,,0.00,Wunderground v.1.15,2013-09-06 22:52:00,
2013-09-06 19:02:00,78.0,67.0,30.02,ENE,67,1.0,1.0,69,0.00,,,0.00,Wunderground v.1.15,2013-09-06 23:02:00,
2013-09-06 19:12:00,77.6,66.6,30.02,ENE,67,0.0,0.0,69,0.00,,,0.00,Wunderground v.1.15,2013-09-06 23:12:00,
2013-09-06 19:32:00,75.2,66.7,30.02,ENE,67,0.0,0.0,75,0.00,,,0.00,Wunderground v.1.15,2013-09-06 23:32:00,
2013-09-06 19:42:00,74.2,66.9,30.03,ENE,67,0.0,0.0,78,0.00,,,0.00,Wunderground v.1.15,2013-09-06 23:42:00,
2013-09-06 19:52:00,73.1,66.6,30.03,ENE,67,0.0,0.0,80,0.00,,,0.00,Wunderground v.1.15,2013-09-06 23:52:00,
2013-09-06 20:02:00,71.8,66.4,30.03,ENE,67,0.0,0.0,83,0.00,,,0.00,Wunderground v.1.15,2013-09-07 00:02:00,
2013-09-06 20:12:00,71.2,66.1,30.03,ENE,67,0.0,0.0,84,0.00,,,0.00,Wunderground v.1.15,2013-09-07 00:12:00,
2013-09-06 20:22:00,70.5,66.1,30.03,ENE,67,0.0,0.0,86,0.00,,,0.00,Wunderground v.1.15,2013-09-07 00:22:00,
2013-09-06 20:32:00,69.8,66.1,30.04,ENE,67,0.0,0.0,88,0.00,,,0.00,Wunderground v.1.15,2013-09-07 00:32:00,
2013-09-06 20:42:00,69.2,66.5,30.04,ENE,67,0.0,0.0,91,0.00,,,0.00,Wunderground v.1.15,2013-09-07 00:42:00,
2013-09-06 20:52:00,68.7,66.0,30.04,ENE,67,0.0,0.0,91,0.00,,,0.00,Wunderground v.1.15,2013-09-07 00:52:00,
2013-09-06 21:02:00,68.6,66.2,30.05,ENE,67,0.0,0.0,92,0.00,,,0.00,Wunderground v.1.15,2013-09-07 01:02:00,
2013-09-06 21:12:00,68.5,66.1,30.05,ENE,67,0.0,0.0,92,0.00,,,0.00,Wunderground v.1.15,2013-09-07 01:12:00,
2013-09-06 21:22:00,68.1,66.0,30.06,ENE,67,0.0,0.0,93,0.00,,,0.00,Wunderground v.1.15,2013-09-07 01:22:00,
2013-09-06 21:32:00,67.8,66.0,30.06,ENE,67,0.0,0.0,94,0.00,,,0.00,Wunderground v.1.15,2013-09-07 01:32:00,
2013-09-06 21:42:00,67.6,65.8,30.06,ENE,67,0.0,0.0,94,0.00,,,0.00,Wunderground v.1.15,2013-09-07 01:42:00,
2013-09-06 21:52:00,67.6,65.8,30.06,ENE,67,0.0,0.0,94,0.00,,,0.00,Wunderground v.1.15,2013-09-07 01:52:00,
2013-09-06 22:02:00,67.4,65.6,30.06,ENE,67,0.0,0.0,94,0.00,,,0.00,Wunderground v.1.15,2013-09-07 02:02:00,
2013-09-06 22:12:00,67.1,65.3,30.06,ENE,67,0.0,0.0,94,0.00,,,0.00,Wunderground v.1.15,2013-09-07 02:12:00,
2013-09-06 22:22:00,67.0,65.2,30.06,ENE,67,0.0,0.0,94,0.00,,,0.00,Wunderground v.1.15,2013-09-07 02:22:00,
2013-09-06 22:32:00,66.8,65.3,30.06,ENE,67,0.0,0.0,95,0.00,,,0.00,Wunderground v.1.15,2013-09-07 02:32:00,
2013-09-06 22:42:00,66.6,65.1,30.07,ENE,67,0.0,0.0,95,0.00,,,0.00,Wunderground v.1.15,2013-09-07 02:42:00,
2013-09-06 22:52:00,66.0,64.5,30.06,ENE,67,0.0,0.0,95,0.00,,,0.00,Wunderground v.1.15,2013-09-07 02:52:00,
2013-09-06 23:02:00,65.9,64.4,30.06,ENE,67,0.0,0.0,95,0.00,,,0.00,Wunderground v.1.15,2013-09-07 03:02:00,
2013-09-06 23:12:00,65.7,64.2,30.06,ENE,67,0.0,0.0,95,0.00,,,0.00,Wunderground v.1.15,2013-09-07 03:12:00,
2013-09-06 23:22:00,65.5,64.0,30.06,ENE,67,0.0,0.0,95,0.00,,,0.00,Wunderground v.1.15,2013-09-07 03:22:00,
2013-09-06 23:32:00,65.5,64.0,30.06,ENE,67,0.0,0.0,95,0.00,,,0.00,Wunderground v.1.15,2013-09-07 03:32:00,
2013-09-06 23:43:00,65.1,63.6,30.06,ENE,67,0.0,0.0,95,0.00,,,0.00,Wunderground v.1.15,2013-09-07 03:43:00,
2013-09-06 23:53:00,65.1,63.6,30.06,ENE,67,0.0,0.0,95,0.00,,,0.00,Wunderground v.1.15,2013-09-07 03:53:00,